Branson, Missouri
Current Conditions -  °F | °C
As of 1:15 AM on Saturday 25 Oct 2014 (Local Time) from KBBG Reporting Station
Clear Clear  
Wind Chill: 63°   Ceiling: Unl
Heat Index: 63°   Visibility: 10mi
Dew Point: 59°   Wind: 6mph
Humidity: 88%   Direction: 240°WSW
Pressure: 30.07"   Gusts: NA
Location:  36.65°N, 93.25°W
Report Text: KBBG 250615Z AUTO 24005KT 10SM CLR 17/15 A3007 RMK AO2
Loading
Personal Weather Stations






























Interactive Weather Map
Tropical Storm Tracking
New forecast layout! Learn more

10-Day Weather Forecast

Advertisements
Track Severe Weather on mobile